Brezno, Slovakia
Current Conditions -  °F | °C
As of 8:00 PM on Monday 24 Nov 2014 (Local Time) from LZSL Reporting Station
Overcast Overcast  
Wind Chill: 37°   Ceiling: 2600
Heat Index: 37°   Visibility: 4mi
Dew Point: 30°   Wind: 2mph
Humidity: 75%   Direction: NA
Pressure: 30.33"   Gusts: NA
Location:  48.81°N, 19.64°E
Report Text: LZSL 241800Z VRB02KT 7000 OVC026 03/M01 Q1027
Loading
Personal Weather Stations






























Interactive Weather Map New forecast layout! Learn more

10-Day Weather Forecast

Advertisements
Track Severe Weather on mobile